Airfield :
LOGIN :

Register | Disclaimer

   EN    FR    IT 

 










Legend :    VFR   Marginal VFR   IFR   Intensive IFR   Very Intensive IFR
Visi :
Ceiling :
>= 8 km
>= 3000ft
5 to 8 km
1000 to 3000 ft
1500m to 5 km
500 to 1000 ft
800 to 1500m
200 to 500 ft
< 800m
< 200 ft
Symbols :   Thunderstorms  Fog  Heavy snow  Heavy precipitations  Wind > 20 kt
SIGMETs :     Misc.  Thunderstorms  Icing  Turbulence  Mountain Waves  Volcanic Ashes







- Airport Elevation : 291 ft
- IATA code : ORY
- Download approach charts


LFPO - Paris-Orly

CURRENT METAR :
  • 250830Z 23009KT 9999 BKN016 BKN023 13/10 Q1016 TEMPO -RA BKN012

EXPIRED METARs :
  • 250800Z 23009KT 200V260 9999 SCT015 BKN022 13/10 Q1016 TEMPO -RA BKN012
  • 250730Z 22010KT 190V250 9999 FEW014 BKN023 13/10 Q1015 TEMPO -RA BKN012
  • 250700Z 22009KT 190V260 9999 FEW018 BKN023 12/09 Q1015 TEMPO -RA BKN012
  • 250630Z 23008KT 9999 BKN024 12/09 Q1015 NOSIG
  • 250600Z 24008KT 220V280 9999 BKN024 12/09 Q1015 NOSIG

TAF TAF LFPO
Valid from the 25 at 06:00 until the 26 at 12:00 UTC


250500Z 2506/2612 24008KT 9999 BKN030
TEMPO 2508/2512 -RA BKN012
BECMG 2512/2514 SCT030
BECMG 2516/2518 CAVOK
ATIS : +33 1 49 75 65 80
No reported NOTAMs for that airfield.



MET'MAP, your aeronautical weather chart ! - Copyright ORBIFLY December 2007 - Disclaimer

ORBIFLY MET'MAP TEAM :

Programming & Development : Alexandra Zaïnal
Concept & Development : Baudouin d'Aumeries
Co-Development & Prog : Marc-Olivier Méhu
Technical & hardware support : Manuel Goepfert

Contact : metmap@orbifly.com




SOURCES & CREDITS :

   NOAA